sim
Sign-in with your pilot id or email,
or register
Callsign
Passwort

Schedule Details

Flight Number: DLH2033
Departure: Berlin Tegel Airport (EDDT) at 09:00
Arrival: Munich Airport (EDDM) at 10:10
Route: Lufthansa Passenger Schedule. Enter filed route here before submitting Pirep.

Weather Information
Getting current METAR information for EDDT 201550Z 08006KT 040V120 CAVOK 22/04 Q1018 NOSIG
Getting current METAR information for EDDM 201550Z 04005KT CAVOK 21/10 Q1015 NOSIG

Schedule Frequency

Route Map